sensor_id;sensor_type;location;lat;lon;timestamp;temperature;humidity
9699;DHT22;10089;47.876;8.346;2023-04-25T00:02:21;4.70;99.90
9699;DHT22;10089;47.876;8.346;2023-04-25T00:04:47;4.60;99.90
9699;DHT22;10089;47.876;8.346;2023-04-25T00:07:15;4.60;99.90
9699;DHT22;10089;47.876;8.346;2023-04-25T00:09:41;4.60;99.90
9699;DHT22;10089;47.876;8.346;2023-04-25T00:12:07;4.60;99.90
9699;DHT22;10089;47.876;8.346;2023-04-25T00:14:33;4.40;99.90
9699;DHT22;10089;47.876;8.346;2023-04-25T00:17:01;4.30;99.90
9699;DHT22;10089;47.876;8.346;2023-04-25T00:19:28;4.40;99.90
9699;DHT22;10089;47.876;8.346;2023-04-25T00:21:55;4.50;99.90
9699;DHT22;10089;47.876;8.346;2023-04-25T00:24:20;4.50;99.90
9699;DHT22;10089;47.876;8.346;2023-04-25T00:26:46;4.60;99.90
9699;DHT22;10089;47.876;8.346;2023-04-25T00:29:12;4.60;99.90
9699;DHT22;10089;47.876;8.346;2023-04-25T00:31:38;4.70;99.90
9699;DHT22;10089;47.876;8.346;2023-04-25T00:34:04;4.70;99.90
9699;DHT22;10089;47.876;8.346;2023-04-25T00:36:30;4.80;99.90
9699;DHT22;10089;47.876;8.346;2023-04-25T00:38:56;5.10;99.90
9699;DHT22;10089;47.876;8.346;2023-04-25T00:41:22;4.90;99.90
9699;DHT22;10089;47.876;8.346;2023-04-25T00:43:48;4.90;99.90
9699;DHT22;10089;47.876;8.346;2023-04-25T00:46:14;4.90;99.90
9699;DHT22;10089;47.876;8.346;2023-04-25T00:48:40;4.90;99.90
9699;DHT22;10089;47.876;8.346;2023-04-25T00:51:06;5.00;99.90
9699;DHT22;10089;47.876;8.346;2023-04-25T00:53:32;4.90;99.90
9699;DHT22;10089;47.876;8.346;2023-04-25T00:55:58;4.60;99.90
9699;DHT22;10089;47.876;8.346;2023-04-25T00:58:24;4.50;99.90
9699;DHT22;10089;47.876;8.346;2023-04-25T01:00:51;4.40;99.90
9699;DHT22;10089;47.876;8.346;2023-04-25T01:03:21;4.30;99.90
9699;DHT22;10089;47.876;8.346;2023-04-25T01:05:47;4.30;99.90
9699;DHT22;10089;47.876;8.346;2023-04-25T01:08:14;4.30;99.90
9699;DHT22;10089;47.876;8.346;2023-04-25T01:10:40;4.30;99.90
9699;DHT22;10089;47.876;8.346;2023-04-25T01:13:07;4.30;99.90
9699;DHT22;10089;47.876;8.346;2023-04-25T01:15:33;4.40;99.90
9699;DHT22;10089;47.876;8.346;2023-04-25T01:17:59;4.40;99.90
9699;DHT22;10089;47.876;8.346;2023-04-25T01:20:26;4.40;99.90
9699;DHT22;10089;47.876;8.346;2023-04-25T01:22:54;4.30;99.90
9699;DHT22;10089;47.876;8.346;2023-04-25T01:25:21;4.30;99.90
9699;DHT22;10089;47.876;8.346;2023-04-25T01:27:47;4.30;99.90
9699;DHT22;10089;47.876;8.346;2023-04-25T01:30:13;4.20;99.90
9699;DHT22;10089;47.876;8.346;2023-04-25T01:32:40;4.20;99.90
9699;DHT22;10089;47.876;8.346;2023-04-25T01:35:08;4.30;99.90
9699;DHT22;10089;47.876;8.346;2023-04-25T01:37:39;4.20;99.90
9699;DHT22;10089;47.876;8.346;2023-04-25T01:40:06;4.20;99.90
9699;DHT22;10089;47.876;8.346;2023-04-25T01:42:34;4.20;99.90
9699;DHT22;10089;47.876;8.346;2023-04-25T01:45:00;4.20;99.90
9699;DHT22;10089;47.876;8.346;2023-04-25T01:47:26;4.20;99.90
9699;DHT22;10089;47.876;8.346;2023-04-25T01:49:51;4.10;99.90
9699;DHT22;10089;47.876;8.346;2023-04-25T01:52:17;3.80;99.90
9699;DHT22;10089;47.876;8.346;2023-04-25T01:54:43;3.80;99.90
9699;DHT22;10089;47.876;8.346;2023-04-25T01:57:11;3.80;99.90
9699;DHT22;10089;47.876;8.346;2023-04-25T01:59:37;3.80;99.90
9699;DHT22;10089;47.876;8.346;2023-04-25T02:02:03;3.80;99.90
9699;DHT22;10089;47.876;8.346;2023-04-25T02:04:32;3.80;99.90
9699;DHT22;10089;47.876;8.346;2023-04-25T02:06:58;3.80;99.90
9699;DHT22;10089;47.876;8.346;2023-04-25T02:09:24;3.50;99.90
9699;DHT22;10089;47.876;8.346;2023-04-25T02:11:50;3.50;99.90
9699;DHT22;10089;47.876;8.346;2023-04-25T02:14:16;3.50;99.90
9699;DHT22;10089;47.876;8.346;2023-04-25T02:16:41;3.60;99.90
9699;DHT22;10089;47.876;8.346;2023-04-25T02:19:09;3.70;99.90
9699;DHT22;10089;47.876;8.346;2023-04-25T02:21:36;3.70;99.90
9699;DHT22;10089;47.876;8.346;2023-04-25T02:24:02;3.70;99.90
9699;DHT22;10089;47.876;8.346;2023-04-25T02:26:28;3.60;99.90
9699;DHT22;10089;47.876;8.346;2023-04-25T02:28:54;3.70;99.90
9699;DHT22;10089;47.876;8.346;2023-04-25T02:31:20;3.60;99.90
9699;DHT22;10089;47.876;8.346;2023-04-25T02:33:47;3.60;99.90
9699;DHT22;10089;47.876;8.346;2023-04-25T02:36:13;3.10;99.90
9699;DHT22;10089;47.876;8.346;2023-04-25T02:38:38;3.10;99.90
9699;DHT22;10089;47.876;8.346;2023-04-25T02:41:04;3.10;99.90
9699;DHT22;10089;47.876;8.346;2023-04-25T02:43:30;3.00;99.90
9699;DHT22;10089;47.876;8.346;2023-04-25T02:45:56;2.90;99.90
9699;DHT22;10089;47.876;8.346;2023-04-25T02:48:22;2.80;99.90
9699;DHT22;10089;47.876;8.346;2023-04-25T02:50:48;2.90;99.90
9699;DHT22;10089;47.876;8.346;2023-04-25T02:53:13;3.00;99.90
9699;DHT22;10089;47.876;8.346;2023-04-25T02:55:39;2.80;99.90
9699;DHT22;10089;47.876;8.346;2023-04-25T02:58:05;2.70;99.90
9699;DHT22;10089;47.876;8.346;2023-04-25T03:00:31;2.80;99.90
9699;DHT22;10089;47.876;8.346;2023-04-25T03:02:57;2.60;99.90
9699;DHT22;10089;47.876;8.346;2023-04-25T03:05:22;2.60;99.90
9699;DHT22;10089;47.876;8.346;2023-04-25T03:07:48;2.60;99.90
9699;DHT22;10089;47.876;8.346;2023-04-25T03:10:14;2.70;99.90
9699;DHT22;10089;47.876;8.346;2023-04-25T03:12:40;2.80;99.90
9699;DHT22;10089;47.876;8.346;2023-04-25T03:15:07;2.90;99.90
9699;DHT22;10089;47.876;8.346;2023-04-25T03:17:33;3.00;99.90
9699;DHT22;10089;47.876;8.346;2023-04-25T03:19:59;2.80;99.90
9699;DHT22;10089;47.876;8.346;2023-04-25T03:22:25;2.80;99.90
9699;DHT22;10089;47.876;8.346;2023-04-25T03:24:51;2.90;99.90
9699;DHT22;10089;47.876;8.346;2023-04-25T03:27:17;2.70;99.90
9699;DHT22;10089;47.876;8.346;2023-04-25T03:29:43;2.70;99.90
9699;DHT22;10089;47.876;8.346;2023-04-25T03:32:09;2.80;99.90
9699;DHT22;10089;47.876;8.346;2023-04-25T03:34:35;2.90;99.90
9699;DHT22;10089;47.876;8.346;2023-04-25T03:37:00;2.90;99.90
9699;DHT22;10089;47.876;8.346;2023-04-25T03:39:26;2.90;99.90
9699;DHT22;10089;47.876;8.346;2023-04-25T03:41:52;2.90;99.90
9699;DHT22;10089;47.876;8.346;2023-04-25T03:44:18;2.90;99.90
9699;DHT22;10089;47.876;8.346;2023-04-25T03:46:44;2.90;99.90
9699;DHT22;10089;47.876;8.346;2023-04-25T03:49:10;2.70;99.90
9699;DHT22;10089;47.876;8.346;2023-04-25T03:51:35;2.70;99.90
9699;DHT22;10089;47.876;8.346;2023-04-25T03:54:01;2.60;99.90
9699;DHT22;10089;47.876;8.346;2023-04-25T03:56:27;2.70;99.90
9699;DHT22;10089;47.876;8.346;2023-04-25T03:58:53;2.80;99.90
9699;DHT22;10089;47.876;8.346;2023-04-25T04:01:19;2.80;99.90
9699;DHT22;10089;47.876;8.346;2023-04-25T04:03:44;2.60;99.90
9699;DHT22;10089;47.876;8.346;2023-04-25T04:06:10;2.60;99.90
9699;DHT22;10089;47.876;8.346;2023-04-25T04:08:36;2.60;99.90
9699;DHT22;10089;47.876;8.346;2023-04-25T04:11:02;2.60;99.90
9699;DHT22;10089;47.876;8.346;2023-04-25T04:13:28;2.70;99.90
9699;DHT22;10089;47.876;8.346;2023-04-25T04:15:55;2.70;99.90
9699;DHT22;10089;47.876;8.346;2023-04-25T04:18:21;2.70;99.90
9699;DHT22;10089;47.876;8.346;2023-04-25T04:20:47;2.80;99.90
9699;DHT22;10089;47.876;8.346;2023-04-25T04:23:13;2.70;99.90
9699;DHT22;10089;47.876;8.346;2023-04-25T04:25:39;2.60;99.90
9699;DHT22;10089;47.876;8.346;2023-04-25T04:28:06;2.70;99.90
9699;DHT22;10089;47.876;8.346;2023-04-25T04:30:32;2.70;99.90
9699;DHT22;10089;47.876;8.346;2023-04-25T04:33:02;2.70;99.90
9699;DHT22;10089;47.876;8.346;2023-04-25T04:35:28;2.80;99.90
9699;DHT22;10089;47.876;8.346;2023-04-25T04:37:53;2.80;99.90
9699;DHT22;10089;47.876;8.346;2023-04-25T04:40:20;2.90;99.90
9699;DHT22;10089;47.876;8.346;2023-04-25T04:42:46;2.80;99.90
9699;DHT22;10089;47.876;8.346;2023-04-25T04:45:12;2.80;99.90
9699;DHT22;10089;47.876;8.346;2023-04-25T04:47:38;2.80;99.90
9699;DHT22;10089;47.876;8.346;2023-04-25T04:50:08;2.70;99.90
9699;DHT22;10089;47.876;8.346;2023-04-25T04:52:35;2.80;99.90
9699;DHT22;10089;47.876;8.346;2023-04-25T04:55:02;2.80;99.90
9699;DHT22;10089;47.876;8.346;2023-04-25T04:57:28;2.90;99.90
9699;DHT22;10089;47.876;8.346;2023-04-25T04:59:54;2.10;99.90
9699;DHT22;10089;47.876;8.346;2023-04-25T05:02:20;2.00;99.90
9699;DHT22;10089;47.876;8.346;2023-04-25T05:04:46;2.10;99.90
9699;DHT22;10089;47.876;8.346;2023-04-25T05:07:12;2.10;99.90
9699;DHT22;10089;47.876;8.346;2023-04-25T05:09:38;2.30;99.90
9699;DHT22;10089;47.876;8.346;2023-04-25T05:12:04;2.30;99.90
9699;DHT22;10089;47.876;8.346;2023-04-25T05:14:30;2.50;99.90
9699;DHT22;10089;47.876;8.346;2023-04-25T05:16:56;2.60;99.90
9699;DHT22;10089;47.876;8.346;2023-04-25T05:19:22;2.80;99.90
9699;DHT22;10089;47.876;8.346;2023-04-25T05:21:51;3.00;99.90
9699;DHT22;10089;47.876;8.346;2023-04-25T05:24:16;3.10;99.90
9699;DHT22;10089;47.876;8.346;2023-04-25T05:26:42;3.20;99.90
9699;DHT22;10089;47.876;8.346;2023-04-25T05:29:08;3.30;99.90
9699;DHT22;10089;47.876;8.346;2023-04-25T05:31:33;3.40;99.90
9699;DHT22;10089;47.876;8.346;2023-04-25T05:33:59;3.50;99.90
9699;DHT22;10089;47.876;8.346;2023-04-25T05:36:25;3.60;99.90
9699;DHT22;10089;47.876;8.346;2023-04-25T05:38:51;3.70;99.90
9699;DHT22;10089;47.876;8.346;2023-04-25T05:41:17;3.70;99.90
9699;DHT22;10089;47.876;8.346;2023-04-25T05:43:43;3.60;99.90
9699;DHT22;10089;47.876;8.346;2023-04-25T05:46:12;3.50;99.90
9699;DHT22;10089;47.876;8.346;2023-04-25T05:48:39;3.50;99.90
9699;DHT22;10089;47.876;8.346;2023-04-25T05:51:05;3.50;99.90
9699;DHT22;10089;47.876;8.346;2023-04-25T05:53:31;3.50;99.90
9699;DHT22;10089;47.876;8.346;2023-04-25T05:55:56;3.60;99.90
9699;DHT22;10089;47.876;8.346;2023-04-25T05:58:22;3.70;99.90
9699;DHT22;10089;47.876;8.346;2023-04-25T06:00:48;3.70;99.90
9699;DHT22;10089;47.876;8.346;2023-04-25T06:03:14;3.70;99.90
9699;DHT22;10089;47.876;8.346;2023-04-25T06:05:43;3.60;99.90
9699;DHT22;10089;47.876;8.346;2023-04-25T06:08:09;3.70;99.90
9699;DHT22;10089;47.876;8.346;2023-04-25T06:10:37;3.70;99.90
9699;DHT22;10089;47.876;8.346;2023-04-25T06:13:04;3.70;99.90
9699;DHT22;10089;47.876;8.346;2023-04-25T06:15:31;3.80;99.90
9699;DHT22;10089;47.876;8.346;2023-04-25T06:17:59;3.90;99.90
9699;DHT22;10089;47.876;8.346;2023-04-25T06:20:25;3.70;99.90
9699;DHT22;10089;47.876;8.346;2023-04-25T06:22:51;3.60;99.90
9699;DHT22;10089;47.876;8.346;2023-04-25T06:25:18;3.70;99.90
9699;DHT22;10089;47.876;8.346;2023-04-25T06:27:49;3.60;99.90
9699;DHT22;10089;47.876;8.346;2023-04-25T06:30:19;3.70;99.90
9699;DHT22;10089;47.876;8.346;2023-04-25T06:33:01;3.60;99.90
9699;DHT22;10089;47.876;8.346;2023-04-25T06:35:27;3.50;99.90
9699;DHT22;10089;47.876;8.346;2023-04-25T06:37:52;3.40;99.90
9699;DHT22;10089;47.876;8.346;2023-04-25T06:40:18;3.10;99.90
9699;DHT22;10089;47.876;8.346;2023-04-25T06:42:44;2.90;99.90
9699;DHT22;10089;47.876;8.346;2023-04-25T06:45:10;2.70;99.90
9699;DHT22;10089;47.876;8.346;2023-04-25T06:47:36;2.50;99.90
9699;DHT22;10089;47.876;8.346;2023-04-25T06:50:01;2.30;99.90
9699;DHT22;10089;47.876;8.346;2023-04-25T06:52:27;2.40;99.90
9699;DHT22;10089;47.876;8.346;2023-04-25T06:54:53;2.40;99.90
9699;DHT22;10089;47.876;8.346;2023-04-25T06:57:19;2.50;99.90
9699;DHT22;10089;47.876;8.346;2023-04-25T06:59:45;2.50;99.90
9699;DHT22;10089;47.876;8.346;2023-04-25T07:02:10;2.50;99.90
9699;DHT22;10089;47.876;8.346;2023-04-25T07:04:36;2.50;99.90
9699;DHT22;10089;47.876;8.346;2023-04-25T07:07:02;2.70;99.90
9699;DHT22;10089;47.876;8.346;2023-04-25T07:09:29;2.90;99.90
9699;DHT22;10089;47.876;8.346;2023-04-25T07:11:55;2.90;99.90
9699;DHT22;10089;47.876;8.346;2023-04-25T07:14:22;3.00;99.90
9699;DHT22;10089;47.876;8.346;2023-04-25T07:16:48;2.90;99.90
9699;DHT22;10089;47.876;8.346;2023-04-25T07:19:13;3.10;99.90
9699;DHT22;10089;47.876;8.346;2023-04-25T07:21:39;3.40;99.90
9699;DHT22;10089;47.876;8.346;2023-04-25T07:24:06;3.60;99.90
9699;DHT22;10089;47.876;8.346;2023-04-25T07:26:31;3.50;99.90
9699;DHT22;10089;47.876;8.346;2023-04-25T07:28:57;3.60;99.90
9699;DHT22;10089;47.876;8.346;2023-04-25T07:31:23;3.50;99.90
9699;DHT22;10089;47.876;8.346;2023-04-25T07:33:49;3.50;99.90
9699;DHT22;10089;47.876;8.346;2023-04-25T07:36:15;3.70;99.90
9699;DHT22;10089;47.876;8.346;2023-04-25T07:38:41;3.80;99.90
9699;DHT22;10089;47.876;8.346;2023-04-25T07:41:07;3.90;99.90
9699;DHT22;10089;47.876;8.346;2023-04-25T07:43:33;3.80;99.90
9699;DHT22;10089;47.876;8.346;2023-04-25T07:45:58;4.00;99.90
9699;DHT22;10089;47.876;8.346;2023-04-25T07:48:24;3.90;99.90
9699;DHT22;10089;47.876;8.346;2023-04-25T07:50:50;3.90;99.90
9699;DHT22;10089;47.876;8.346;2023-04-25T07:53:17;3.90;99.90
9699;DHT22;10089;47.876;8.346;2023-04-25T07:55:48;4.00;99.90
9699;DHT22;10089;47.876;8.346;2023-04-25T07:58:14;4.00;99.90
9699;DHT22;10089;47.876;8.346;2023-04-25T08:00:40;3.90;99.90
9699;DHT22;10089;47.876;8.346;2023-04-25T08:03:09;4.00;99.90
9699;DHT22;10089;47.876;8.346;2023-04-25T08:05:34;4.10;99.90
9699;DHT22;10089;47.876;8.346;2023-04-25T08:08:00;4.20;99.90
9699;DHT22;10089;47.876;8.346;2023-04-25T08:10:27;4.30;99.90
9699;DHT22;10089;47.876;8.346;2023-04-25T08:12:53;4.30;99.90
9699;DHT22;10089;47.876;8.346;2023-04-25T08:15:19;4.40;99.90
9699;DHT22;10089;47.876;8.346;2023-04-25T08:17:45;4.60;99.90
9699;DHT22;10089;47.876;8.346;2023-04-25T08:20:11;4.70;99.90
9699;DHT22;10089;47.876;8.346;2023-04-25T08:22:37;4.70;99.90
9699;DHT22;10089;47.876;8.346;2023-04-25T08:25:03;5.00;99.90
9699;DHT22;10089;47.876;8.346;2023-04-25T08:27:33;5.20;99.90
9699;DHT22;10089;47.876;8.346;2023-04-25T08:29:59;5.40;99.90
9699;DHT22;10089;47.876;8.346;2023-04-25T08:32:25;5.50;99.90
9699;DHT22;10089;47.876;8.346;2023-04-25T08:34:51;5.50;99.90
9699;DHT22;10089;47.876;8.346;2023-04-25T08:37:19;5.50;99.90
9699;DHT22;10089;47.876;8.346;2023-04-25T08:39:46;5.60;99.90
9699;DHT22;10089;47.876;8.346;2023-04-25T08:42:15;5.60;99.90
9699;DHT22;10089;47.876;8.346;2023-04-25T08:44:41;5.70;99.90
9699;DHT22;10089;47.876;8.346;2023-04-25T08:47:07;5.60;99.90
9699;DHT22;10089;47.876;8.346;2023-04-25T08:49:33;5.60;99.90
9699;DHT22;10089;47.876;8.346;2023-04-25T08:52:02;5.70;99.90
9699;DHT22;10089;47.876;8.346;2023-04-25T08:54:43;5.90;99.90
9699;DHT22;10089;47.876;8.346;2023-04-25T08:57:14;6.00;99.90
9699;DHT22;10089;47.876;8.346;2023-04-25T08:59:41;6.10;99.90
9699;DHT22;10089;47.876;8.346;2023-04-25T09:02:11;6.00;99.90
9699;DHT22;10089;47.876;8.346;2023-04-25T09:04:45;5.80;99.90
9699;DHT22;10089;47.876;8.346;2023-04-25T09:07:11;5.70;99.90
9699;DHT22;10089;47.876;8.346;2023-04-25T09:09:37;5.60;99.90
9699;DHT22;10089;47.876;8.346;2023-04-25T09:12:03;5.40;99.90
9699;DHT22;10089;47.876;8.346;2023-04-25T09:14:28;5.30;99.90
9699;DHT22;10089;47.876;8.346;2023-04-25T09:19:35;5.40;99.90
9699;DHT22;10089;47.876;8.346;2023-04-25T09:22:03;5.30;99.90
9699;DHT22;10089;47.876;8.346;2023-04-25T09:24:39;5.20;99.90
9699;DHT22;10089;47.876;8.346;2023-04-25T09:27:20;5.00;99.90
9699;DHT22;10089;47.876;8.346;2023-04-25T09:29:59;5.00;99.90
9699;DHT22;10089;47.876;8.346;2023-04-25T09:32:28;4.90;99.90
9699;DHT22;10089;47.876;8.346;2023-04-25T09:34:55;4.90;99.90
9699;DHT22;10089;47.876;8.346;2023-04-25T09:37:23;4.90;99.90
9699;DHT22;10089;47.876;8.346;2023-04-25T09:39:53;5.00;99.90
9699;DHT22;10089;47.876;8.346;2023-04-25T09:42:22;5.20;99.90
9699;DHT22;10089;47.876;8.346;2023-04-25T09:44:52;5.40;99.90
9699;DHT22;10089;47.876;8.346;2023-04-25T09:47:18;5.70;99.90
9699;DHT22;10089;47.876;8.346;2023-04-25T09:49:47;6.00;99.90
9699;DHT22;10089;47.876;8.346;2023-04-25T09:52:23;6.40;99.90
9699;DHT22;10089;47.876;8.346;2023-04-25T09:54:50;6.40;99.90
9699;DHT22;10089;47.876;8.346;2023-04-25T09:57:22;6.80;99.90
9699;DHT22;10089;47.876;8.346;2023-04-25T09:59:53;7.00;99.90
9699;DHT22;10089;47.876;8.346;2023-04-25T10:02:21;7.20;99.90
9699;DHT22;10089;47.876;8.346;2023-04-25T10:04:51;7.30;91.70
9699;DHT22;10089;47.876;8.346;2023-04-25T10:07:19;7.20;99.90
9699;DHT22;10089;47.876;8.346;2023-04-25T10:09:48;7.10;91.80
9699;DHT22;10089;47.876;8.346;2023-04-25T10:12:16;6.80;20.00
9699;DHT22;10089;47.876;8.346;2023-04-25T10:14:42;6.70;99.90
9699;DHT22;10089;47.876;8.346;2023-04-25T10:17:10;6.60;19.60
9699;DHT22;10089;47.876;8.346;2023-04-25T10:19:37;6.70;99.90
9699;DHT22;10089;47.876;8.346;2023-04-25T10:22:07;6.70;99.90
9699;DHT22;10089;47.876;8.346;2023-04-25T10:24:35;6.80;99.90
9699;DHT22;10089;47.876;8.346;2023-04-25T10:27:02;6.80;99.90
9699;DHT22;10089;47.876;8.346;2023-04-25T10:29:28;7.00;99.90
9699;DHT22;10089;47.876;8.346;2023-04-25T10:31:54;7.40;99.90
9699;DHT22;10089;47.876;8.346;2023-04-25T10:34:25;7.50;1.00
9699;DHT22;10089;47.876;8.346;2023-04-25T10:37:05;7.60;1.00
9699;DHT22;10089;47.876;8.346;2023-04-25T10:39:33;7.80;1.90
9699;DHT22;10089;47.876;8.346;2023-04-25T10:42:02;7.70;1.00
9699;DHT22;10089;47.876;8.346;2023-04-25T10:44:29;8.10;99.90
9699;DHT22;10089;47.876;8.346;2023-04-25T10:46:56;8.30;1.00
9699;DHT22;10089;47.876;8.346;2023-04-25T10:49:31;8.60;1.00
9699;DHT22;10089;47.876;8.346;2023-04-25T10:52:26;8.00;99.90
9699;DHT22;10089;47.876;8.346;2023-04-25T10:54:56;7.70;1.00
9699;DHT22;10089;47.876;8.346;2023-04-25T11:05:59;7.90;1.00
9699;DHT22;10089;47.876;8.346;2023-04-25T11:08:48;7.60;99.90
9699;DHT22;10089;47.876;8.346;2023-04-25T11:11:28;7.90;99.90
9699;DHT22;10089;47.876;8.346;2023-04-25T11:13:55;7.80;1.00
9699;DHT22;10089;47.876;8.346;2023-04-25T11:16:33;8.20;1.00
9699;DHT22;10089;47.876;8.346;2023-04-25T11:19:01;9.80;1.00
9699;DHT22;10089;47.876;8.346;2023-04-25T11:21:39;9.40;28.60
9699;DHT22;10089;47.876;8.346;2023-04-25T11:24:09;9.10;1.00
9699;DHT22;10089;47.876;8.346;2023-04-25T11:26:42;11.20;10.30
9699;DHT22;10089;47.876;8.346;2023-04-25T11:29:08;9.70;1.00
9699;DHT22;10089;47.876;8.346;2023-04-25T11:31:46;9.90;99.90
9699;DHT22;10089;47.876;8.346;2023-04-25T11:34:18;9.30;77.70
9699;DHT22;10089;47.876;8.346;2023-04-25T11:36:47;9.60;1.00
9699;DHT22;10089;47.876;8.346;2023-04-25T11:39:21;10.00;99.90
9699;DHT22;10089;47.876;8.346;2023-04-25T11:41:49;9.50;1.00
9699;DHT22;10089;47.876;8.346;2023-04-25T11:44:19;9.70;99.90
9699;DHT22;10089;47.876;8.346;2023-04-25T11:46:46;9.40;1.00
9699;DHT22;10089;47.876;8.346;2023-04-25T11:49:18;9.70;99.90
9699;DHT22;10089;47.876;8.346;2023-04-25T11:52:06;11.20;99.90
9699;DHT22;10089;47.876;8.346;2023-04-25T11:54:36;10.10;29.30
9699;DHT22;10089;47.876;8.346;2023-04-25T11:57:20;8.80;1.00
9699;DHT22;10089;47.876;8.346;2023-04-25T11:59:49;8.70;99.90
9699;DHT22;10089;47.876;8.346;2023-04-25T12:28:35;10.80;99.90
9699;DHT22;10089;47.876;8.346;2023-04-25T12:31:02;10.90;1.00
9699;DHT22;10089;47.876;8.346;2023-04-25T12:33:37;10.80;1.00
9699;DHT22;10089;47.876;8.346;2023-04-25T12:36:04;10.40;1.00
9699;DHT22;10089;47.876;8.346;2023-04-25T12:38:38;10.00;1.00
9699;DHT22;10089;47.876;8.346;2023-04-25T12:41:04;9.80;1.00
9699;DHT22;10089;47.876;8.346;2023-04-25T12:43:31;9.50;99.90
9699;DHT22;10089;47.876;8.346;2023-04-25T12:45:56;9.20;1.00
9699;DHT22;10089;47.876;8.346;2023-04-25T12:48:23;9.10;1.00
9699;DHT22;10089;47.876;8.346;2023-04-25T12:50:49;8.90;1.00
9699;DHT22;10089;47.876;8.346;2023-04-25T12:53:20;8.70;60.30
9699;DHT22;10089;47.876;8.346;2023-04-25T12:55:47;8.50;99.90
9699;DHT22;10089;47.876;8.346;2023-04-25T12:58:14;8.60;1.00
9699;DHT22;10089;47.876;8.346;2023-04-25T13:00:40;8.60;1.00
9699;DHT22;10089;47.876;8.346;2023-04-25T13:03:06;8.50;99.90
9699;DHT22;10089;47.876;8.346;2023-04-25T13:05:32;8.40;1.00
9699;DHT22;10089;47.876;8.346;2023-04-25T13:07:58;8.50;1.00
9699;DHT22;10089;47.876;8.346;2023-04-25T13:13:28;8.00;1.00
9699;DHT22;10089;47.876;8.346;2023-04-25T13:19:40;7.80;1.00
9699;DHT22;10089;47.876;8.346;2023-04-25T13:22:06;7.70;48.90
9699;DHT22;10089;47.876;8.346;2023-04-25T13:24:32;8.70;26.90
9699;DHT22;10089;47.876;8.346;2023-04-25T13:26:58;8.00;99.90
9699;DHT22;10089;47.876;8.346;2023-04-25T13:29:24;8.50;5.60
9699;DHT22;10089;47.876;8.346;2023-04-25T13:31:50;8.50;1.00
9699;DHT22;10089;47.876;8.346;2023-04-25T13:34:15;8.60;1.00
9699;DHT22;10089;47.876;8.346;2023-04-25T13:36:42;8.70;1.00
9699;DHT22;10089;47.876;8.346;2023-04-25T13:39:08;9.30;1.00
9699;DHT22;10089;47.876;8.346;2023-04-25T13:41:34;9.60;99.90
9699;DHT22;10089;47.876;8.346;2023-04-25T13:44:00;9.30;99.90
9699;DHT22;10089;47.876;8.346;2023-04-25T13:46:26;9.30;42.80
9699;DHT22;10089;47.876;8.346;2023-04-25T13:48:52;9.30;1.00
9699;DHT22;10089;47.876;8.346;2023-04-25T13:51:18;9.00;1.00
9699;DHT22;10089;47.876;8.346;2023-04-25T13:53:44;9.10;1.00
9699;DHT22;10089;47.876;8.346;2023-04-25T13:56:10;9.40;99.90
9699;DHT22;10089;47.876;8.346;2023-04-25T13:58:37;9.60;1.00
9699;DHT22;10089;47.876;8.346;2023-04-25T14:01:03;9.70;1.00
9699;DHT22;10089;47.876;8.346;2023-04-25T14:03:30;9.80;99.90
9699;DHT22;10089;47.876;8.346;2023-04-25T14:05:56;10.20;1.00
9699;DHT22;10089;47.876;8.346;2023-04-25T14:08:22;10.20;1.00
9699;DHT22;10089;47.876;8.346;2023-04-25T14:10:47;10.20;1.00
9699;DHT22;10089;47.876;8.346;2023-04-25T14:13:13;10.20;1.00
9699;DHT22;10089;47.876;8.346;2023-04-25T14:15:39;10.20;99.90
9699;DHT22;10089;47.876;8.346;2023-04-25T14:18:09;10.20;99.90
9699;DHT22;10089;47.876;8.346;2023-04-25T14:20:35;10.30;99.90
9699;DHT22;10089;47.876;8.346;2023-04-25T14:23:01;10.00;1.00
9699;DHT22;10089;47.876;8.346;2023-04-25T14:25:27;9.90;1.00
9699;DHT22;10089;47.876;8.346;2023-04-25T14:27:54;9.70;99.90
9699;DHT22;10089;47.876;8.346;2023-04-25T14:30:21;9.60;1.00
9699;DHT22;10089;47.876;8.346;2023-04-25T14:32:48;9.50;1.00
9699;DHT22;10089;47.876;8.346;2023-04-25T14:35:15;9.40;1.00
9699;DHT22;10089;47.876;8.346;2023-04-25T14:37:41;9.20;99.90
9699;DHT22;10089;47.876;8.346;2023-04-25T14:40:10;9.20;1.00
9699;DHT22;10089;47.876;8.346;2023-04-25T14:42:37;9.00;99.90
9699;DHT22;10089;47.876;8.346;2023-04-25T14:45:07;9.00;1.00
9699;DHT22;10089;47.876;8.346;2023-04-25T14:47:39;8.90;99.90
9699;DHT22;10089;47.876;8.346;2023-04-25T14:50:31;8.70;1.00
9699;DHT22;10089;47.876;8.346;2023-04-25T14:53:00;8.10;99.90
9699;DHT22;10089;47.876;8.346;2023-04-25T14:55:27;8.40;99.90
9699;DHT22;10089;47.876;8.346;2023-04-25T14:58:01;7.30;1.00
9699;DHT22;10089;47.876;8.346;2023-04-25T15:00:33;7.20;1.00
9699;DHT22;10089;47.876;8.346;2023-04-25T15:02:58;7.50;23.30
9699;DHT22;10089;47.876;8.346;2023-04-25T15:05:29;7.40;1.00
9699;DHT22;10089;47.876;8.346;2023-04-25T15:08:04;8.20;1.00
9699;DHT22;10089;47.876;8.346;2023-04-25T15:11:04;8.00;1.00
9699;DHT22;10089;47.876;8.346;2023-04-25T15:29:03;9.60;1.00
9699;DHT22;10089;47.876;8.346;2023-04-25T15:39:30;8.30;1.00
9699;DHT22;10089;47.876;8.346;2023-04-25T15:41:58;8.50;1.00
9699;DHT22;10089;47.876;8.346;2023-04-25T15:44:24;8.50;99.90
9699;DHT22;10089;47.876;8.346;2023-04-25T15:49:55;8.00;1.00
9699;DHT22;10089;47.876;8.346;2023-04-25T15:52:23;8.20;99.90
9699;DHT22;10089;47.876;8.346;2023-04-25T15:54:51;7.90;1.00
9699;DHT22;10089;47.876;8.346;2023-04-25T15:57:17;8.30;1.00
9699;DHT22;10089;47.876;8.346;2023-04-25T15:59:43;8.20;99.90
9699;DHT22;10089;47.876;8.346;2023-04-25T16:02:09;8.10;99.90
9699;DHT22;10089;47.876;8.346;2023-04-25T16:11:39;9.10;1.00
9699;DHT22;10089;47.876;8.346;2023-04-25T16:14:05;8.10;1.00
9699;DHT22;10089;47.876;8.346;2023-04-25T16:16:33;8.20;1.00
9699;DHT22;10089;47.876;8.346;2023-04-25T16:18:58;8.00;1.00
9699;DHT22;10089;47.876;8.346;2023-04-25T16:21:24;8.00;80.00
9699;DHT22;10089;47.876;8.346;2023-04-25T16:23:51;7.90;1.00
9699;DHT22;10089;47.876;8.346;2023-04-25T16:26:17;8.00;1.00
9699;DHT22;10089;47.876;8.346;2023-04-25T16:28:43;7.90;1.00
9699;DHT22;10089;47.876;8.346;2023-04-25T16:31:08;7.80;99.90
9699;DHT22;10089;47.876;8.346;2023-04-25T16:33:34;7.80;99.90
9699;DHT22;10089;47.876;8.346;2023-04-25T16:36:00;7.70;99.90
9699;DHT22;10089;47.876;8.346;2023-04-25T16:38:26;7.60;99.90
9699;DHT22;10089;47.876;8.346;2023-04-25T16:40:52;7.50;1.00
9699;DHT22;10089;47.876;8.346;2023-04-25T16:46:34;7.40;1.00
9699;DHT22;10089;47.876;8.346;2023-04-25T16:49:00;7.00;85.50
9699;DHT22;10089;47.876;8.346;2023-04-25T16:51:26;6.80;99.90
9699;DHT22;10089;47.876;8.346;2023-04-25T16:53:52;6.80;99.90
9699;DHT22;10089;47.876;8.346;2023-04-25T16:56:19;6.80;99.90
9699;DHT22;10089;47.876;8.346;2023-04-25T16:58:48;6.70;99.90
9699;DHT22;10089;47.876;8.346;2023-04-25T17:01:32;6.80;99.90
9699;DHT22;10089;47.876;8.346;2023-04-25T17:04:00;6.50;99.90
9699;DHT22;10089;47.876;8.346;2023-04-25T17:06:29;6.40;99.90
9699;DHT22;10089;47.876;8.346;2023-04-25T17:08:58;6.20;99.90
9699;DHT22;10089;47.876;8.346;2023-04-25T17:11:24;6.10;99.90
9699;DHT22;10089;47.876;8.346;2023-04-25T17:13:50;6.10;99.90
9699;DHT22;10089;47.876;8.346;2023-04-25T17:16:18;6.00;99.90
9699;DHT22;10089;47.876;8.346;2023-04-25T17:22:18;6.20;99.90
9699;DHT22;10089;47.876;8.346;2023-04-25T17:24:44;8.60;99.90
9699;DHT22;10089;47.876;8.346;2023-04-25T17:27:10;6.20;99.90
9699;DHT22;10089;47.876;8.346;2023-04-25T17:29:36;6.10;99.90
9699;DHT22;10089;47.876;8.346;2023-04-25T17:32:02;6.10;99.90